sensor_id;sensor_type;location;lat;lon;timestamp;P1;durP1;ratioP1;P2;durP2;ratioP2
18933;SDS011;9599;53.706;10.384;2022-11-13T00:01:10;27.27;;;16.60;;
18933;SDS011;9599;53.706;10.384;2022-11-13T00:04:00;25.80;;;16.67;;
18933;SDS011;9599;53.706;10.384;2022-11-13T00:06:47;29.50;;;16.97;;
18933;SDS011;9599;53.706;10.384;2022-11-13T00:09:38;30.23;;;17.03;;
18933;SDS011;9599;53.706;10.384;2022-11-13T00:12:24;25.50;;;15.97;;
18933;SDS011;9599;53.706;10.384;2022-11-13T00:15:11;27.23;;;16.53;;
18933;SDS011;9599;53.706;10.384;2022-11-13T00:17:59;30.30;;;17.43;;
18933;SDS011;9599;53.706;10.384;2022-11-13T00:20:47;27.23;;;16.67;;
18933;SDS011;9599;53.706;10.384;2022-11-13T00:23:34;31.83;;;16.90;;
18933;SDS011;9599;53.706;10.384;2022-11-13T00:26:22;26.83;;;16.63;;
18933;SDS011;9599;53.706;10.384;2022-11-13T00:29:10;26.80;;;16.40;;
18933;SDS011;9599;53.706;10.384;2022-11-13T00:31:56;27.27;;;16.90;;
18933;SDS011;9599;53.706;10.384;2022-11-13T00:34:44;29.50;;;16.67;;
18933;SDS011;9599;53.706;10.384;2022-11-13T00:37:33;29.40;;;17.80;;
18933;SDS011;9599;53.706;10.384;2022-11-13T00:40:20;33.10;;;18.10;;
18933;SDS011;9599;53.706;10.384;2022-11-13T00:43:07;29.53;;;17.27;;
18933;SDS011;9599;53.706;10.384;2022-11-13T00:45:53;30.43;;;17.53;;
18933;SDS011;9599;53.706;10.384;2022-11-13T00:48:40;29.13;;;17.33;;
18933;SDS011;9599;53.706;10.384;2022-11-13T00:51:26;32.43;;;16.97;;
18933;SDS011;9599;53.706;10.384;2022-11-13T00:54:14;31.57;;;18.50;;
18933;SDS011;9599;53.706;10.384;2022-11-13T00:57:01;29.37;;;16.80;;
18933;SDS011;9599;53.706;10.384;2022-11-13T00:59:47;31.07;;;17.60;;
18933;SDS011;9599;53.706;10.384;2022-11-13T01:02:34;27.23;;;16.67;;
18933;SDS011;9599;53.706;10.384;2022-11-13T01:05:20;28.80;;;16.40;;
18933;SDS011;9599;53.706;10.384;2022-11-13T01:08:07;27.70;;;16.13;;
18933;SDS011;9599;53.706;10.384;2022-11-13T01:10:56;28.30;;;16.07;;
18933;SDS011;9599;53.706;10.384;2022-11-13T01:13:43;25.97;;;16.70;;
18933;SDS011;9599;53.706;10.384;2022-11-13T01:16:31;30.00;;;17.03;;
18933;SDS011;9599;53.706;10.384;2022-11-13T01:19:18;29.17;;;17.47;;
18933;SDS011;9599;53.706;10.384;2022-11-13T01:22:04;25.73;;;16.30;;
18933;SDS011;9599;53.706;10.384;2022-11-13T01:24:51;26.77;;;16.77;;
18933;SDS011;9599;53.706;10.384;2022-11-13T01:27:38;27.90;;;16.33;;
18933;SDS011;9599;53.706;10.384;2022-11-13T01:30:25;26.13;;;15.83;;
18933;SDS011;9599;53.706;10.384;2022-11-13T01:33:11;24.83;;;16.30;;
18933;SDS011;9599;53.706;10.384;2022-11-13T01:35:58;27.57;;;15.37;;
18933;SDS011;9599;53.706;10.384;2022-11-13T01:38:46;28.77;;;16.03;;
18933;SDS011;9599;53.706;10.384;2022-11-13T01:41:33;30.60;;;16.73;;
18933;SDS011;9599;53.706;10.384;2022-11-13T01:44:21;29.60;;;15.60;;
18933;SDS011;9599;53.706;10.384;2022-11-13T01:47:08;28.17;;;16.20;;
18933;SDS011;9599;53.706;10.384;2022-11-13T01:49:55;27.23;;;16.53;;
18933;SDS011;9599;53.706;10.384;2022-11-13T01:52:43;29.53;;;16.57;;
18933;SDS011;9599;53.706;10.384;2022-11-13T01:55:30;26.90;;;15.57;;
18933;SDS011;9599;53.706;10.384;2022-11-13T01:58:17;27.73;;;15.87;;
18933;SDS011;9599;53.706;10.384;2022-11-13T02:01:05;25.63;;;15.83;;
18933;SDS011;9599;53.706;10.384;2022-11-13T02:03:51;26.67;;;16.30;;
18933;SDS011;9599;53.706;10.384;2022-11-13T02:06:39;27.27;;;16.90;;
18933;SDS011;9599;53.706;10.384;2022-11-13T02:09:29;27.37;;;16.20;;
18933;SDS011;9599;53.706;10.384;2022-11-13T02:12:19;31.17;;;17.70;;
18933;SDS011;9599;53.706;10.384;2022-11-13T02:15:10;28.37;;;16.50;;
18933;SDS011;9599;53.706;10.384;2022-11-13T02:17:58;26.13;;;15.80;;
18933;SDS011;9599;53.706;10.384;2022-11-13T02:20:49;25.63;;;15.80;;
18933;SDS011;9599;53.706;10.384;2022-11-13T02:23:42;29.97;;;16.83;;
18933;SDS011;9599;53.706;10.384;2022-11-13T02:26:35;25.97;;;14.73;;
18933;SDS011;9599;53.706;10.384;2022-11-13T02:29:23;28.93;;;16.53;;
18933;SDS011;9599;53.706;10.384;2022-11-13T02:32:09;29.17;;;15.93;;
18933;SDS011;9599;53.706;10.384;2022-11-13T02:34:55;26.30;;;16.07;;
18933;SDS011;9599;53.706;10.384;2022-11-13T02:37:42;28.90;;;16.60;;
18933;SDS011;9599;53.706;10.384;2022-11-13T02:40:29;27.57;;;16.90;;
18933;SDS011;9599;53.706;10.384;2022-11-13T02:43:18;28.63;;;16.40;;
18933;SDS011;9599;53.706;10.384;2022-11-13T02:46:04;27.13;;;16.07;;
18933;SDS011;9599;53.706;10.384;2022-11-13T02:48:51;26.67;;;15.20;;
18933;SDS011;9599;53.706;10.384;2022-11-13T02:51:37;27.30;;;16.13;;
18933;SDS011;9599;53.706;10.384;2022-11-13T02:54:24;31.73;;;17.27;;
18933;SDS011;9599;53.706;10.384;2022-11-13T02:57:10;30.10;;;17.13;;
18933;SDS011;9599;53.706;10.384;2022-11-13T02:59:58;31.30;;;17.93;;
18933;SDS011;9599;53.706;10.384;2022-11-13T03:02:45;29.03;;;17.90;;
18933;SDS011;9599;53.706;10.384;2022-11-13T03:05:32;31.83;;;17.43;;
18933;SDS011;9599;53.706;10.384;2022-11-13T03:08:18;31.37;;;16.93;;
18933;SDS011;9599;53.706;10.384;2022-11-13T03:11:07;28.20;;;17.00;;
18933;SDS011;9599;53.706;10.384;2022-11-13T03:13:54;33.30;;;17.33;;
18933;SDS011;9599;53.706;10.384;2022-11-13T03:16:42;31.23;;;17.63;;
18933;SDS011;9599;53.706;10.384;2022-11-13T03:19:28;29.90;;;17.47;;
18933;SDS011;9599;53.706;10.384;2022-11-13T03:22:15;27.07;;;17.13;;
18933;SDS011;9599;53.706;10.384;2022-11-13T03:25:01;29.37;;;16.07;;
18933;SDS011;9599;53.706;10.384;2022-11-13T03:27:54;30.13;;;16.50;;
18933;SDS011;9599;53.706;10.384;2022-11-13T03:30:41;32.63;;;17.07;;
18933;SDS011;9599;53.706;10.384;2022-11-13T03:33:29;31.10;;;17.20;;
18933;SDS011;9599;53.706;10.384;2022-11-13T03:36:16;31.80;;;17.47;;
18933;SDS011;9599;53.706;10.384;2022-11-13T03:39:02;28.27;;;16.63;;
18933;SDS011;9599;53.706;10.384;2022-11-13T03:41:49;32.47;;;17.70;;
18933;SDS011;9599;53.706;10.384;2022-11-13T03:44:35;33.00;;;18.20;;
18933;SDS011;9599;53.706;10.384;2022-11-13T03:47:22;31.17;;;17.17;;
18933;SDS011;9599;53.706;10.384;2022-11-13T03:50:10;33.60;;;17.77;;
18933;SDS011;9599;53.706;10.384;2022-11-13T03:52:57;31.10;;;17.47;;
18933;SDS011;9599;53.706;10.384;2022-11-13T03:55:43;35.03;;;18.07;;
18933;SDS011;9599;53.706;10.384;2022-11-13T03:58:30;35.53;;;18.27;;
18933;SDS011;9599;53.706;10.384;2022-11-13T04:01:20;34.83;;;19.13;;
18933;SDS011;9599;53.706;10.384;2022-11-13T04:04:07;37.90;;;18.30;;
18933;SDS011;9599;53.706;10.384;2022-11-13T04:06:54;37.00;;;20.47;;
18933;SDS011;9599;53.706;10.384;2022-11-13T04:09:40;37.27;;;20.47;;
18933;SDS011;9599;53.706;10.384;2022-11-13T04:12:27;40.83;;;20.97;;
18933;SDS011;9599;53.706;10.384;2022-11-13T04:15:13;37.53;;;20.00;;
18933;SDS011;9599;53.706;10.384;2022-11-13T04:18:00;34.37;;;19.47;;
18933;SDS011;9599;53.706;10.384;2022-11-13T04:20:46;38.97;;;20.47;;
18933;SDS011;9599;53.706;10.384;2022-11-13T04:23:34;37.13;;;18.83;;
18933;SDS011;9599;53.706;10.384;2022-11-13T04:26:21;36.93;;;20.07;;
18933;SDS011;9599;53.706;10.384;2022-11-13T04:29:08;35.57;;;19.40;;
18933;SDS011;9599;53.706;10.384;2022-11-13T04:31:54;37.83;;;19.83;;
18933;SDS011;9599;53.706;10.384;2022-11-13T04:34:40;35.37;;;19.20;;
18933;SDS011;9599;53.706;10.384;2022-11-13T04:37:27;37.03;;;19.77;;
18933;SDS011;9599;53.706;10.384;2022-11-13T04:40:15;37.37;;;19.53;;
18933;SDS011;9599;53.706;10.384;2022-11-13T04:43:02;35.47;;;18.97;;
18933;SDS011;9599;53.706;10.384;2022-11-13T04:45:47;35.10;;;19.50;;
18933;SDS011;9599;53.706;10.384;2022-11-13T04:48:37;33.63;;;18.73;;
18933;SDS011;9599;53.706;10.384;2022-11-13T04:51:23;32.80;;;18.27;;
18933;SDS011;9599;53.706;10.384;2022-11-13T04:54:10;35.33;;;18.67;;
18933;SDS011;9599;53.706;10.384;2022-11-13T04:56:58;40.47;;;20.07;;
18933;SDS011;9599;53.706;10.384;2022-11-13T04:59:44;35.33;;;18.50;;
18933;SDS011;9599;53.706;10.384;2022-11-13T05:02:31;34.60;;;19.13;;
18933;SDS011;9599;53.706;10.384;2022-11-13T05:05:19;40.47;;;20.03;;
18933;SDS011;9599;53.706;10.384;2022-11-13T05:08:05;43.60;;;21.07;;
18933;SDS011;9599;53.706;10.384;2022-11-13T05:10:52;43.87;;;20.70;;
18933;SDS011;9599;53.706;10.384;2022-11-13T05:13:40;43.13;;;21.57;;
18933;SDS011;9599;53.706;10.384;2022-11-13T05:16:26;39.63;;;20.27;;
18933;SDS011;9599;53.706;10.384;2022-11-13T05:19:13;43.83;;;21.67;;
18933;SDS011;9599;53.706;10.384;2022-11-13T05:21:59;44.77;;;22.07;;
18933;SDS011;9599;53.706;10.384;2022-11-13T05:24:46;39.87;;;21.30;;
18933;SDS011;9599;53.706;10.384;2022-11-13T05:27:32;40.23;;;21.03;;
18933;SDS011;9599;53.706;10.384;2022-11-13T05:30:20;42.27;;;22.10;;
18933;SDS011;9599;53.706;10.384;2022-11-13T05:33:06;42.27;;;21.53;;
18933;SDS011;9599;53.706;10.384;2022-11-13T05:35:53;39.43;;;21.20;;
18933;SDS011;9599;53.706;10.384;2022-11-13T05:38:40;39.73;;;21.30;;
18933;SDS011;9599;53.706;10.384;2022-11-13T05:41:27;45.70;;;22.40;;
18933;SDS011;9599;53.706;10.384;2022-11-13T05:44:14;43.77;;;22.03;;
18933;SDS011;9599;53.706;10.384;2022-11-13T05:47:02;40.67;;;22.13;;
18933;SDS011;9599;53.706;10.384;2022-11-13T05:49:48;46.53;;;22.40;;
18933;SDS011;9599;53.706;10.384;2022-11-13T05:52:35;46.60;;;23.57;;
18933;SDS011;9599;53.706;10.384;2022-11-13T05:55:22;39.33;;;21.83;;
18933;SDS011;9599;53.706;10.384;2022-11-13T05:58:08;47.03;;;23.27;;
18933;SDS011;9599;53.706;10.384;2022-11-13T06:01:03;49.30;;;22.63;;
18933;SDS011;9599;53.706;10.384;2022-11-13T06:03:53;46.93;;;23.23;;
18933;SDS011;9599;53.706;10.384;2022-11-13T06:06:40;49.30;;;23.53;;
18933;SDS011;9599;53.706;10.384;2022-11-13T06:09:27;43.70;;;22.33;;
18933;SDS011;9599;53.706;10.384;2022-11-13T06:12:13;47.03;;;22.60;;
18933;SDS011;9599;53.706;10.384;2022-11-13T06:15:00;53.83;;;23.07;;
18933;SDS011;9599;53.706;10.384;2022-11-13T06:17:46;46.60;;;21.97;;
18933;SDS011;9599;53.706;10.384;2022-11-13T06:20:34;48.57;;;21.90;;
18933;SDS011;9599;53.706;10.384;2022-11-13T06:23:21;47.37;;;22.77;;
18933;SDS011;9599;53.706;10.384;2022-11-13T06:26:08;47.93;;;21.53;;
18933;SDS011;9599;53.706;10.384;2022-11-13T06:28:56;44.97;;;20.47;;
18933;SDS011;9599;53.706;10.384;2022-11-13T06:31:43;50.03;;;20.80;;
18933;SDS011;9599;53.706;10.384;2022-11-13T06:34:30;48.00;;;20.03;;
18933;SDS011;9599;53.706;10.384;2022-11-13T06:37:17;47.07;;;19.53;;
18933;SDS011;9599;53.706;10.384;2022-11-13T06:40:04;46.87;;;20.93;;
18933;SDS011;9599;53.706;10.384;2022-11-13T06:42:52;49.77;;;21.07;;
18933;SDS011;9599;53.706;10.384;2022-11-13T06:45:38;48.70;;;20.17;;
18933;SDS011;9599;53.706;10.384;2022-11-13T06:48:25;45.37;;;19.37;;
18933;SDS011;9599;53.706;10.384;2022-11-13T06:51:13;33.00;;;15.97;;
18933;SDS011;9599;53.706;10.384;2022-11-13T06:54:02;50.77;;;18.77;;
18933;SDS011;9599;53.706;10.384;2022-11-13T06:56:48;43.90;;;19.10;;
18933;SDS011;9599;53.706;10.384;2022-11-13T06:59:35;46.73;;;19.23;;
18933;SDS011;9599;53.706;10.384;2022-11-13T07:02:21;48.50;;;19.30;;
18933;SDS011;9599;53.706;10.384;2022-11-13T07:05:08;39.23;;;17.43;;
18933;SDS011;9599;53.706;10.384;2022-11-13T07:07:55;43.40;;;18.63;;
18933;SDS011;9599;53.706;10.384;2022-11-13T07:10:42;44.13;;;18.47;;
18933;SDS011;9599;53.706;10.384;2022-11-13T07:13:29;45.53;;;19.13;;
18933;SDS011;9599;53.706;10.384;2022-11-13T07:16:17;41.13;;;17.57;;
18933;SDS011;9599;53.706;10.384;2022-11-13T07:19:04;41.40;;;17.80;;
18933;SDS011;9599;53.706;10.384;2022-11-13T07:21:50;46.07;;;18.17;;
18933;SDS011;9599;53.706;10.384;2022-11-13T07:24:37;40.63;;;17.57;;
18933;SDS011;9599;53.706;10.384;2022-11-13T07:27:25;43.50;;;18.07;;
18933;SDS011;9599;53.706;10.384;2022-11-13T07:30:12;44.53;;;18.00;;
18933;SDS011;9599;53.706;10.384;2022-11-13T07:33:00;39.33;;;17.20;;
18933;SDS011;9599;53.706;10.384;2022-11-13T07:35:47;46.67;;;18.00;;
18933;SDS011;9599;53.706;10.384;2022-11-13T07:38:34;47.60;;;17.73;;
18933;SDS011;9599;53.706;10.384;2022-11-13T07:41:20;41.43;;;16.97;;
18933;SDS011;9599;53.706;10.384;2022-11-13T07:44:08;41.37;;;17.47;;
18933;SDS011;9599;53.706;10.384;2022-11-13T07:47:06;41.90;;;16.47;;
18933;SDS011;9599;53.706;10.384;2022-11-13T07:49:52;38.97;;;16.73;;
18933;SDS011;9599;53.706;10.384;2022-11-13T07:52:53;48.83;;;17.37;;
18933;SDS011;9599;53.706;10.384;2022-11-13T07:55:40;41.90;;;16.70;;
18933;SDS011;9599;53.706;10.384;2022-11-13T07:58:27;40.47;;;16.80;;
18933;SDS011;9599;53.706;10.384;2022-11-13T08:01:16;46.77;;;17.13;;
18933;SDS011;9599;53.706;10.384;2022-11-13T08:04:03;46.10;;;17.63;;
18933;SDS011;9599;53.706;10.384;2022-11-13T08:06:50;44.13;;;16.93;;
18933;SDS011;9599;53.706;10.384;2022-11-13T08:09:36;43.00;;;17.50;;
18933;SDS011;9599;53.706;10.384;2022-11-13T08:12:23;46.93;;;18.73;;
18933;SDS011;9599;53.706;10.384;2022-11-13T08:15:10;48.80;;;17.73;;
18933;SDS011;9599;53.706;10.384;2022-11-13T08:18:00;47.93;;;17.83;;
18933;SDS011;9599;53.706;10.384;2022-11-13T08:20:48;49.50;;;18.30;;
18933;SDS011;9599;53.706;10.384;2022-11-13T08:23:34;47.57;;;18.13;;
18933;SDS011;9599;53.706;10.384;2022-11-13T08:26:21;46.57;;;18.07;;
18933;SDS011;9599;53.706;10.384;2022-11-13T08:29:07;47.27;;;18.30;;
18933;SDS011;9599;53.706;10.384;2022-11-13T08:31:54;50.53;;;18.73;;
18933;SDS011;9599;53.706;10.384;2022-11-13T08:34:42;51.20;;;19.17;;
18933;SDS011;9599;53.706;10.384;2022-11-13T08:37:28;44.83;;;18.60;;
18933;SDS011;9599;53.706;10.384;2022-11-13T08:40:15;47.57;;;19.87;;
18933;SDS011;9599;53.706;10.384;2022-11-13T08:43:02;48.00;;;19.80;;
18933;SDS011;9599;53.706;10.384;2022-11-13T08:45:49;55.60;;;20.90;;
18933;SDS011;9599;53.706;10.384;2022-11-13T08:48:36;53.20;;;20.50;;
18933;SDS011;9599;53.706;10.384;2022-11-13T08:51:23;47.27;;;19.70;;
18933;SDS011;9599;53.706;10.384;2022-11-13T08:54:10;55.90;;;21.23;;
18933;SDS011;9599;53.706;10.384;2022-11-13T08:56:56;57.50;;;22.57;;
18933;SDS011;9599;53.706;10.384;2022-11-13T08:59:50;54.03;;;22.57;;
18933;SDS011;9599;53.706;10.384;2022-11-13T09:02:36;47.20;;;20.30;;
18933;SDS011;9599;53.706;10.384;2022-11-13T09:05:23;52.73;;;20.83;;
18933;SDS011;9599;53.706;10.384;2022-11-13T09:08:11;55.53;;;21.57;;
18933;SDS011;9599;53.706;10.384;2022-11-13T09:11:00;50.70;;;21.07;;
18933;SDS011;9599;53.706;10.384;2022-11-13T09:13:48;54.27;;;22.80;;
18933;SDS011;9599;53.706;10.384;2022-11-13T09:16:37;53.90;;;22.33;;
18933;SDS011;9599;53.706;10.384;2022-11-13T09:19:24;56.90;;;23.27;;
18933;SDS011;9599;53.706;10.384;2022-11-13T09:22:11;59.47;;;23.17;;
18933;SDS011;9599;53.706;10.384;2022-11-13T09:24:58;53.23;;;22.53;;
18933;SDS011;9599;53.706;10.384;2022-11-13T09:27:50;53.33;;;21.87;;
18933;SDS011;9599;53.706;10.384;2022-11-13T09:30:38;59.00;;;22.90;;
18933;SDS011;9599;53.706;10.384;2022-11-13T09:33:24;53.50;;;21.20;;
18933;SDS011;9599;53.706;10.384;2022-11-13T09:36:11;53.97;;;22.03;;
18933;SDS011;9599;53.706;10.384;2022-11-13T09:38:59;52.77;;;20.57;;
18933;SDS011;9599;53.706;10.384;2022-11-13T09:41:48;44.93;;;19.93;;
18933;SDS011;9599;53.706;10.384;2022-11-13T09:44:38;46.57;;;18.93;;
18933;SDS011;9599;53.706;10.384;2022-11-13T09:47:30;47.23;;;19.53;;
18933;SDS011;9599;53.706;10.384;2022-11-13T09:50:21;49.53;;;20.40;;
18933;SDS011;9599;53.706;10.384;2022-11-13T09:53:11;52.50;;;21.03;;
18933;SDS011;9599;53.706;10.384;2022-11-13T09:55:59;44.30;;;19.33;;
18933;SDS011;9599;53.706;10.384;2022-11-13T09:58:56;49.60;;;21.43;;
18933;SDS011;9599;53.706;10.384;2022-11-13T10:01:48;52.33;;;20.23;;
18933;SDS011;9599;53.706;10.384;2022-11-13T10:04:45;52.27;;;22.10;;
18933;SDS011;9599;53.706;10.384;2022-11-13T10:07:40;54.37;;;21.80;;
18933;SDS011;9599;53.706;10.384;2022-11-13T10:10:38;48.43;;;19.50;;
18933;SDS011;9599;53.706;10.384;2022-11-13T10:13:41;48.57;;;19.97;;
18933;SDS011;9599;53.706;10.384;2022-11-13T10:16:32;41.87;;;18.60;;
18933;SDS011;9599;53.706;10.384;2022-11-13T10:19:24;41.97;;;18.17;;
18933;SDS011;9599;53.706;10.384;2022-11-13T10:22:20;46.43;;;18.97;;
18933;SDS011;9599;53.706;10.384;2022-11-13T10:25:19;42.63;;;19.57;;
18933;SDS011;9599;53.706;10.384;2022-11-13T10:28:11;46.27;;;18.70;;
18933;SDS011;9599;53.706;10.384;2022-11-13T10:31:20;42.43;;;18.17;;
18933;SDS011;9599;53.706;10.384;2022-11-13T10:34:08;42.43;;;17.37;;
18933;SDS011;9599;53.706;10.384;2022-11-13T10:36:59;44.23;;;17.00;;
18933;SDS011;9599;53.706;10.384;2022-11-13T10:39:58;36.73;;;15.60;;
18933;SDS011;9599;53.706;10.384;2022-11-13T10:42:44;35.60;;;15.70;;
18933;SDS011;9599;53.706;10.384;2022-11-13T10:45:30;36.97;;;15.83;;
18933;SDS011;9599;53.706;10.384;2022-11-13T10:48:18;36.30;;;15.40;;
18933;SDS011;9599;53.706;10.384;2022-11-13T10:51:22;37.43;;;15.13;;
18933;SDS011;9599;53.706;10.384;2022-11-13T10:54:18;34.33;;;15.03;;
18933;SDS011;9599;53.706;10.384;2022-11-13T10:57:16;33.13;;;14.50;;
18933;SDS011;9599;53.706;10.384;2022-11-13T11:00:20;30.57;;;13.93;;
18933;SDS011;9599;53.706;10.384;2022-11-13T11:03:12;33.97;;;14.90;;
18933;SDS011;9599;53.706;10.384;2022-11-13T11:06:01;32.87;;;14.43;;
18933;SDS011;9599;53.706;10.384;2022-11-13T11:08:50;37.80;;;15.53;;
18933;SDS011;9599;53.706;10.384;2022-11-13T11:11:37;33.93;;;14.73;;
18933;SDS011;9599;53.706;10.384;2022-11-13T11:14:44;39.30;;;15.80;;
18933;SDS011;9599;53.706;10.384;2022-11-13T11:17:44;36.27;;;16.13;;
18933;SDS011;9599;53.706;10.384;2022-11-13T11:20:37;32.03;;;15.23;;
18933;SDS011;9599;53.706;10.384;2022-11-13T11:23:30;34.23;;;14.90;;
18933;SDS011;9599;53.706;10.384;2022-11-13T11:26:25;34.27;;;14.93;;
18933;SDS011;9599;53.706;10.384;2022-11-13T11:29:18;31.87;;;14.93;;
18933;SDS011;9599;53.706;10.384;2022-11-13T11:32:10;33.33;;;15.77;;
18933;SDS011;9599;53.706;10.384;2022-11-13T11:35:04;33.30;;;14.83;;
18933;SDS011;9599;53.706;10.384;2022-11-13T11:37:58;35.33;;;16.30;;
18933;SDS011;9599;53.706;10.384;2022-11-13T11:40:51;32.07;;;14.77;;
18933;SDS011;9599;53.706;10.384;2022-11-13T11:43:43;29.80;;;14.67;;
18933;SDS011;9599;53.706;10.384;2022-11-13T11:46:32;30.23;;;14.90;;
18933;SDS011;9599;53.706;10.384;2022-11-13T11:49:20;34.17;;;15.23;;
18933;SDS011;9599;53.706;10.384;2022-11-13T11:52:13;30.40;;;15.23;;
18933;SDS011;9599;53.706;10.384;2022-11-13T11:55:27;30.10;;;14.97;;
18933;SDS011;9599;53.706;10.384;2022-11-13T11:58:25;29.73;;;15.30;;
18933;SDS011;9599;53.706;10.384;2022-11-13T12:01:42;30.97;;;15.10;;
18933;SDS011;9599;53.706;10.384;2022-11-13T12:04:45;32.97;;;15.07;;
18933;SDS011;9599;53.706;10.384;2022-11-13T12:07:40;31.10;;;15.50;;
18933;SDS011;9599;53.706;10.384;2022-11-13T12:10:34;32.53;;;15.53;;
18933;SDS011;9599;53.706;10.384;2022-11-13T12:13:27;29.13;;;15.83;;
18933;SDS011;9599;53.706;10.384;2022-11-13T12:16:18;30.87;;;16.33;;
18933;SDS011;9599;53.706;10.384;2022-11-13T12:19:14;34.33;;;17.23;;
18933;SDS011;9599;53.706;10.384;2022-11-13T12:22:10;34.13;;;17.30;;
18933;SDS011;9599;53.706;10.384;2022-11-13T12:25:08;39.47;;;19.50;;
18933;SDS011;9599;53.706;10.384;2022-11-13T12:28:05;38.33;;;18.63;;
18933;SDS011;9599;53.706;10.384;2022-11-13T12:31:02;34.83;;;18.63;;
18933;SDS011;9599;53.706;10.384;2022-11-13T12:33:58;37.47;;;19.63;;
18933;SDS011;9599;53.706;10.384;2022-11-13T12:36:52;40.23;;;20.80;;
18933;SDS011;9599;53.706;10.384;2022-11-13T12:39:42;39.57;;;20.50;;
18933;SDS011;9599;53.706;10.384;2022-11-13T12:42:38;36.30;;;20.70;;
18933;SDS011;9599;53.706;10.384;2022-11-13T12:45:40;39.57;;;21.00;;
18933;SDS011;9599;53.706;10.384;2022-11-13T12:48:34;39.37;;;20.67;;
18933;SDS011;9599;53.706;10.384;2022-11-13T12:51:23;41.93;;;21.17;;
18933;SDS011;9599;53.706;10.384;2022-11-13T12:54:10;38.37;;;21.53;;
18933;SDS011;9599;53.706;10.384;2022-11-13T12:57:14;41.57;;;21.67;;
18933;SDS011;9599;53.706;10.384;2022-11-13T13:00:10;39.97;;;22.03;;
18933;SDS011;9599;53.706;10.384;2022-11-13T13:03:09;39.40;;;21.67;;
18933;SDS011;9599;53.706;10.384;2022-11-13T13:06:11;39.17;;;22.00;;
18933;SDS011;9599;53.706;10.384;2022-11-13T13:09:17;41.40;;;21.20;;
18933;SDS011;9599;53.706;10.384;2022-11-13T13:12:14;40.50;;;21.37;;
18933;SDS011;9599;53.706;10.384;2022-11-13T13:15:09;37.80;;;20.23;;
18933;SDS011;9599;53.706;10.384;2022-11-13T13:18:04;36.87;;;20.17;;
18933;SDS011;9599;53.706;10.384;2022-11-13T13:20:58;38.17;;;20.93;;
18933;SDS011;9599;53.706;10.384;2022-11-13T13:23:48;37.27;;;19.97;;
18933;SDS011;9599;53.706;10.384;2022-11-13T13:26:44;39.53;;;20.23;;
18933;SDS011;9599;53.706;10.384;2022-11-13T13:29:32;36.27;;;19.73;;
18933;SDS011;9599;53.706;10.384;2022-11-13T13:32:20;38.03;;;20.43;;
18933;SDS011;9599;53.706;10.384;2022-11-13T13:35:11;34.50;;;19.83;;
18933;SDS011;9599;53.706;10.384;2022-11-13T13:38:06;33.53;;;18.43;;
18933;SDS011;9599;53.706;10.384;2022-11-13T13:41:04;36.73;;;19.70;;
18933;SDS011;9599;53.706;10.384;2022-11-13T13:44:09;32.53;;;17.97;;
18933;SDS011;9599;53.706;10.384;2022-11-13T13:47:08;36.80;;;19.40;;
18933;SDS011;9599;53.706;10.384;2022-11-13T13:50:11;34.27;;;18.80;;
18933;SDS011;9599;53.706;10.384;2022-11-13T13:53:01;34.43;;;18.13;;
18933;SDS011;9599;53.706;10.384;2022-11-13T13:55:48;36.90;;;18.77;;
18933;SDS011;9599;53.706;10.384;2022-11-13T13:58:37;31.43;;;17.63;;
18933;SDS011;9599;53.706;10.384;2022-11-13T14:01:27;36.40;;;19.07;;
18933;SDS011;9599;53.706;10.384;2022-11-13T14:04:17;39.10;;;18.40;;
18933;SDS011;9599;53.706;10.384;2022-11-13T14:07:04;34.83;;;18.13;;
18933;SDS011;9599;53.706;10.384;2022-11-13T14:10:07;33.67;;;18.20;;
18933;SDS011;9599;53.706;10.384;2022-11-13T14:13:00;34.40;;;18.90;;
18933;SDS011;9599;53.706;10.384;2022-11-13T14:15:47;32.07;;;18.03;;
18933;SDS011;9599;53.706;10.384;2022-11-13T14:18:35;35.70;;;18.77;;
18933;SDS011;9599;53.706;10.384;2022-11-13T14:21:21;32.47;;;18.23;;
18933;SDS011;9599;53.706;10.384;2022-11-13T14:24:09;31.07;;;17.73;;
18933;SDS011;9599;53.706;10.384;2022-11-13T14:27:03;34.40;;;18.03;;
18933;SDS011;9599;53.706;10.384;2022-11-13T14:29:52;30.80;;;17.60;;
18933;SDS011;9599;53.706;10.384;2022-11-13T14:32:40;31.07;;;16.70;;
18933;SDS011;9599;53.706;10.384;2022-11-13T14:35:32;28.53;;;16.40;;
18933;SDS011;9599;53.706;10.384;2022-11-13T14:38:20;27.97;;;16.20;;
18933;SDS011;9599;53.706;10.384;2022-11-13T14:41:13;29.17;;;16.40;;
18933;SDS011;9599;53.706;10.384;2022-11-13T14:44:05;31.03;;;15.83;;
18933;SDS011;9599;53.706;10.384;2022-11-13T14:46:58;27.57;;;15.70;;
18933;SDS011;9599;53.706;10.384;2022-11-13T14:49:45;29.23;;;16.17;;
18933;SDS011;9599;53.706;10.384;2022-11-13T14:52:33;28.57;;;16.37;;
18933;SDS011;9599;53.706;10.384;2022-11-13T14:55:20;25.67;;;15.07;;
18933;SDS011;9599;53.706;10.384;2022-11-13T14:58:10;23.93;;;13.93;;
18933;SDS011;9599;53.706;10.384;2022-11-13T15:00:58;23.30;;;13.60;;
18933;SDS011;9599;53.706;10.384;2022-11-13T15:03:56;20.07;;;11.77;;
18933;SDS011;9599;53.706;10.384;2022-11-13T15:06:43;22.97;;;13.23;;
18933;SDS011;9599;53.706;10.384;2022-11-13T15:09:33;19.03;;;10.93;;
18933;SDS011;9599;53.706;10.384;2022-11-13T15:12:19;20.87;;;11.07;;
18933;SDS011;9599;53.706;10.384;2022-11-13T15:15:07;19.27;;;11.83;;
18933;SDS011;9599;53.706;10.384;2022-11-13T15:17:58;19.43;;;12.10;;
18933;SDS011;9599;53.706;10.384;2022-11-13T15:20:46;19.30;;;11.23;;
18933;SDS011;9599;53.706;10.384;2022-11-13T15:23:33;19.33;;;11.53;;
18933;SDS011;9599;53.706;10.384;2022-11-13T15:26:21;21.80;;;10.83;;
18933;SDS011;9599;53.706;10.384;2022-11-13T15:29:08;16.80;;;10.03;;
18933;SDS011;9599;53.706;10.384;2022-11-13T15:31:55;14.90;;;8.63;;
18933;SDS011;9599;53.706;10.384;2022-11-13T15:34:42;13.97;;;8.67;;
18933;SDS011;9599;53.706;10.384;2022-11-13T15:37:29;14.60;;;8.90;;
18933;SDS011;9599;53.706;10.384;2022-11-13T15:40:15;14.50;;;8.27;;
18933;SDS011;9599;53.706;10.384;2022-11-13T15:43:03;15.33;;;8.90;;
18933;SDS011;9599;53.706;10.384;2022-11-13T15:45:50;13.33;;;8.10;;
18933;SDS011;9599;53.706;10.384;2022-11-13T15:48:37;14.50;;;8.50;;
18933;SDS011;9599;53.706;10.384;2022-11-13T15:51:29;16.47;;;8.27;;
18933;SDS011;9599;53.706;10.384;2022-11-13T15:54:21;13.37;;;7.77;;
18933;SDS011;9599;53.706;10.384;2022-11-13T15:57:14;13.63;;;7.53;;
18933;SDS011;9599;53.706;10.384;2022-11-13T16:00:08;14.80;;;8.30;;
18933;SDS011;9599;53.706;10.384;2022-11-13T16:02:57;13.00;;;8.07;;
18933;SDS011;9599;53.706;10.384;2022-11-13T16:05:44;13.20;;;7.80;;
18933;SDS011;9599;53.706;10.384;2022-11-13T16:08:31;13.80;;;8.00;;
18933;SDS011;9599;53.706;10.384;2022-11-13T16:11:18;12.73;;;8.00;;
18933;SDS011;9599;53.706;10.384;2022-11-13T16:14:05;12.10;;;8.00;;
18933;SDS011;9599;53.706;10.384;2022-11-13T16:16:53;12.53;;;8.00;;
18933;SDS011;9599;53.706;10.384;2022-11-13T16:19:40;17.50;;;10.23;;
18933;SDS011;9599;53.706;10.384;2022-11-13T16:22:27;14.00;;;8.97;;
18933;SDS011;9599;53.706;10.384;2022-11-13T16:25:15;15.10;;;8.37;;
18933;SDS011;9599;53.706;10.384;2022-11-13T16:28:03;12.67;;;7.50;;
18933;SDS011;9599;53.706;10.384;2022-11-13T16:30:50;13.00;;;7.47;;
18933;SDS011;9599;53.706;10.384;2022-11-13T16:33:38;12.37;;;7.60;;